sensor_id;sensor_type;location;lat;lon;timestamp;pressure;altitude;pressure_sealevel;temperature;humidity
45275;BME280;31019;43.780;25.948;2023-03-14T00:02:27;101460.22;;;-0.50;100.00
45275;BME280;31019;43.780;25.948;2023-03-14T00:04:56;101461.59;;;-0.68;100.00
45275;BME280;31019;43.780;25.948;2023-03-14T00:07:29;101451.09;;;-0.44;100.00
45275;BME280;31019;43.780;25.948;2023-03-14T00:10:02;101457.34;;;-0.58;100.00
45275;BME280;31019;43.780;25.948;2023-03-14T00:12:31;101449.00;;;-0.75;100.00
45275;BME280;31019;43.780;25.948;2023-03-14T00:14:59;101458.09;;;-0.45;100.00
45275;BME280;31019;43.780;25.948;2023-03-14T00:17:29;101447.84;;;-0.59;100.00
45275;BME280;31019;43.780;25.948;2023-03-14T00:19:55;101446.31;;;-0.62;100.00
45275;BME280;31019;43.780;25.948;2023-03-14T00:22:23;101440.13;;;-0.72;100.00
45275;BME280;31019;43.780;25.948;2023-03-14T00:24:53;101432.69;;;-1.01;100.00
45275;BME280;31019;43.780;25.948;2023-03-14T00:27:21;101431.84;;;-1.01;100.00
45275;BME280;31019;43.780;25.948;2023-03-14T00:29:49;101427.28;;;-0.86;100.00
45275;BME280;31019;43.780;25.948;2023-03-14T00:32:17;101417.97;;;-1.02;100.00
45275;BME280;31019;43.780;25.948;2023-03-14T00:34:44;101419.22;;;-1.19;100.00
45275;BME280;31019;43.780;25.948;2023-03-14T00:37:11;101424.84;;;-1.12;100.00
45275;BME280;31019;43.780;25.948;2023-03-14T00:39:39;101411.56;;;-1.09;100.00
45275;BME280;31019;43.780;25.948;2023-03-14T00:42:11;101408.88;;;-0.96;100.00
45275;BME280;31019;43.780;25.948;2023-03-14T00:44:39;101392.47;;;-1.09;100.00
45275;BME280;31019;43.780;25.948;2023-03-14T00:47:07;101402.09;;;-0.99;100.00
45275;BME280;31019;43.780;25.948;2023-03-14T00:49:34;101391.81;;;-0.89;100.00
45275;BME280;31019;43.780;25.948;2023-03-14T00:52:01;101390.03;;;-0.88;100.00
45275;BME280;31019;43.780;25.948;2023-03-14T00:54:29;101386.88;;;-0.81;100.00
45275;BME280;31019;43.780;25.948;2023-03-14T00:56:57;101381.63;;;-0.92;100.00
45275;BME280;31019;43.780;25.948;2023-03-14T00:59:28;101390.63;;;-0.85;100.00
45275;BME280;31019;43.780;25.948;2023-03-14T01:01:55;101384.44;;;-0.95;100.00
45275;BME280;31019;43.780;25.948;2023-03-14T01:04:26;101385.69;;;-0.77;100.00
45275;BME280;31019;43.780;25.948;2023-03-14T01:06:57;101369.00;;;-0.63;100.00
45275;BME280;31019;43.780;25.948;2023-03-14T01:09:24;101373.97;;;-1.06;100.00
45275;BME280;31019;43.780;25.948;2023-03-14T01:12:00;101368.53;;;-1.03;100.00
45275;BME280;31019;43.780;25.948;2023-03-14T01:14:42;101365.00;;;-0.91;100.00
45275;BME280;31019;43.780;25.948;2023-03-14T01:17:09;101365.59;;;-0.99;100.00
45275;BME280;31019;43.780;25.948;2023-03-14T01:19:38;101359.59;;;-1.23;100.00
45275;BME280;31019;43.780;25.948;2023-03-14T01:22:11;101359.53;;;-1.10;100.00
45275;BME280;31019;43.780;25.948;2023-03-14T01:24:38;101369.66;;;-0.83;100.00
45275;BME280;31019;43.780;25.948;2023-03-14T01:27:05;101361.66;;;-1.04;100.00
45275;BME280;31019;43.780;25.948;2023-03-14T01:29:35;101358.50;;;-0.97;100.00
45275;BME280;31019;43.780;25.948;2023-03-14T01:32:19;101360.03;;;-0.94;100.00
45275;BME280;31019;43.780;25.948;2023-03-14T01:34:47;101355.28;;;-1.00;100.00
45275;BME280;31019;43.780;25.948;2023-03-14T01:37:20;101348.38;;;-1.12;100.00
45275;BME280;31019;43.780;25.948;2023-03-14T01:39:48;101350.84;;;-1.22;100.00
45275;BME280;31019;43.780;25.948;2023-03-14T01:42:27;101344.97;;;-1.02;100.00
45275;BME280;31019;43.780;25.948;2023-03-14T01:45:03;101350.78;;;-0.98;100.00
45275;BME280;31019;43.780;25.948;2023-03-14T01:47:36;101351.69;;;-1.10;100.00
45275;BME280;31019;43.780;25.948;2023-03-14T01:50:15;101351.84;;;-1.01;100.00
45275;BME280;31019;43.780;25.948;2023-03-14T01:52:47;101350.16;;;-1.13;100.00
45275;BME280;31019;43.780;25.948;2023-03-14T01:55:29;101350.50;;;-1.18;100.00
45275;BME280;31019;43.780;25.948;2023-03-14T01:58:12;101343.16;;;-1.24;100.00
45275;BME280;31019;43.780;25.948;2023-03-14T02:00:39;101349.72;;;-0.96;100.00
45275;BME280;31019;43.780;25.948;2023-03-14T02:03:24;101344.97;;;-1.72;100.00
45275;BME280;31019;43.780;25.948;2023-03-14T02:05:57;101345.44;;;-1.43;100.00
45275;BME280;31019;43.780;25.948;2023-03-14T02:08:37;101343.69;;;-1.31;100.00
45275;BME280;31019;43.780;25.948;2023-03-14T02:11:07;101337.38;;;-1.05;100.00
45275;BME280;31019;43.780;25.948;2023-03-14T02:13:35;101347.88;;;-0.71;100.00
45275;BME280;31019;43.780;25.948;2023-03-14T02:16:04;101351.59;;;-1.09;100.00
45275;BME280;31019;43.780;25.948;2023-03-14T02:18:32;101342.81;;;-1.43;100.00
45275;BME280;31019;43.780;25.948;2023-03-14T02:21:04;101352.69;;;-1.35;100.00
45275;BME280;31019;43.780;25.948;2023-03-14T02:23:43;101351.16;;;-1.38;100.00
45275;BME280;31019;43.780;25.948;2023-03-14T02:26:17;101353.47;;;-1.46;100.00
45275;BME280;31019;43.780;25.948;2023-03-14T02:28:53;101350.41;;;-1.40;100.00
45275;BME280;31019;43.780;25.948;2023-03-14T02:31:26;101351.00;;;-1.48;100.00
45275;BME280;31019;43.780;25.948;2023-03-14T02:34:04;101350.34;;;-1.63;100.00
45275;BME280;31019;43.780;25.948;2023-03-14T02:36:34;101343.41;;;-1.75;100.00
45275;BME280;31019;43.780;25.948;2023-03-14T02:39:11;101353.53;;;-1.35;100.00
45275;BME280;31019;43.780;25.948;2023-03-14T02:41:41;101349.22;;;-1.71;100.00
45275;BME280;31019;43.780;25.948;2023-03-14T02:44:15;101353.91;;;-1.76;100.00
45275;BME280;31019;43.780;25.948;2023-03-14T02:46:44;101351.69;;;-1.94;100.00
45275;BME280;31019;43.780;25.948;2023-03-14T02:49:16;101353.66;;;-1.85;100.00
45275;BME280;31019;43.780;25.948;2023-03-14T02:51:45;101362.56;;;-1.76;100.00
45275;BME280;31019;43.780;25.948;2023-03-14T02:54:17;101369.16;;;-1.59;100.00
45275;BME280;31019;43.780;25.948;2023-03-14T02:56:47;101362.84;;;-1.68;100.00
45275;BME280;31019;43.780;25.948;2023-03-14T02:59:20;101369.16;;;-1.83;100.00
45275;BME280;31019;43.780;25.948;2023-03-14T03:01:49;101371.41;;;-1.66;100.00
45275;BME280;31019;43.780;25.948;2023-03-14T03:04:16;101362.78;;;-1.79;100.00
45275;BME280;31019;43.780;25.948;2023-03-14T03:06:43;101369.63;;;-1.65;100.00
45275;BME280;31019;43.780;25.948;2023-03-14T03:09:11;101358.31;;;-1.77;100.00
45275;BME280;31019;43.780;25.948;2023-03-14T03:11:38;101357.25;;;-1.74;100.00
45275;BME280;31019;43.780;25.948;2023-03-14T03:14:06;101349.09;;;-1.94;100.00
45275;BME280;31019;43.780;25.948;2023-03-14T03:16:39;101350.63;;;-1.78;100.00
45275;BME280;31019;43.780;25.948;2023-03-14T03:19:05;101354.25;;;-1.81;100.00
45275;BME280;31019;43.780;25.948;2023-03-14T03:21:33;101347.44;;;-1.95;100.00
45275;BME280;31019;43.780;25.948;2023-03-14T03:24:11;101342.13;;;-1.93;100.00
45275;BME280;31019;43.780;25.948;2023-03-14T03:26:38;101353.81;;;-1.99;100.00
45275;BME280;31019;43.780;25.948;2023-03-14T03:29:08;101345.69;;;-2.07;100.00
45275;BME280;31019;43.780;25.948;2023-03-14T03:31:39;101343.66;;;-2.15;100.00
45275;BME280;31019;43.780;25.948;2023-03-14T03:34:06;101340.06;;;-2.01;100.00
45275;BME280;31019;43.780;25.948;2023-03-14T03:36:34;101340.66;;;-1.97;100.00
45275;BME280;31019;43.780;25.948;2023-03-14T03:39:01;101330.63;;;-2.15;100.00
45275;BME280;31019;43.780;25.948;2023-03-14T03:41:27;101335.28;;;-2.07;100.00
45275;BME280;31019;43.780;25.948;2023-03-14T03:43:55;101330.50;;;-2.13;100.00
45275;BME280;31019;43.780;25.948;2023-03-14T03:46:22;101325.22;;;-2.24;100.00
45275;BME280;31019;43.780;25.948;2023-03-14T03:49:11;101317.41;;;-2.24;100.00
45275;BME280;31019;43.780;25.948;2023-03-14T03:51:40;101313.06;;;-2.37;100.00
45275;BME280;31019;43.780;25.948;2023-03-14T03:54:11;101309.66;;;-2.37;100.00
45275;BME280;31019;43.780;25.948;2023-03-14T03:56:37;101300.69;;;-2.33;100.00
45275;BME280;31019;43.780;25.948;2023-03-14T03:59:04;101299.25;;;-2.37;100.00
45275;BME280;31019;43.780;25.948;2023-03-14T04:01:35;101305.19;;;-2.35;100.00
45275;BME280;31019;43.780;25.948;2023-03-14T04:04:05;101296.94;;;-2.29;100.00
45275;BME280;31019;43.780;25.948;2023-03-14T04:06:33;101292.78;;;-2.32;100.00
45275;BME280;31019;43.780;25.948;2023-03-14T04:08:59;101290.91;;;-2.42;100.00
45275;BME280;31019;43.780;25.948;2023-03-14T04:11:29;101288.09;;;-2.26;100.00
45275;BME280;31019;43.780;25.948;2023-03-14T04:13:57;101290.06;;;-2.30;100.00
45275;BME280;31019;43.780;25.948;2023-03-14T04:16:27;101281.59;;;-2.45;100.00
45275;BME280;31019;43.780;25.948;2023-03-14T04:18:58;101292.44;;;-2.51;100.00
45275;BME280;31019;43.780;25.948;2023-03-14T04:21:33;101281.50;;;-2.19;100.00
45275;BME280;31019;43.780;25.948;2023-03-14T04:23:59;101287.22;;;-2.27;100.00
45275;BME280;31019;43.780;25.948;2023-03-14T04:26:30;101280.00;;;-2.35;100.00
45275;BME280;31019;43.780;25.948;2023-03-14T04:29:00;101270.75;;;-2.39;100.00
45275;BME280;31019;43.780;25.948;2023-03-14T04:31:27;101260.59;;;-2.31;100.00
45275;BME280;31019;43.780;25.948;2023-03-14T04:33:54;101267.06;;;-2.73;100.00
45275;BME280;31019;43.780;25.948;2023-03-14T04:36:22;101273.97;;;-2.11;100.00
45275;BME280;31019;43.780;25.948;2023-03-14T04:38:52;101269.81;;;-1.54;100.00
45275;BME280;31019;43.780;25.948;2023-03-14T04:41:19;101262.59;;;-1.62;100.00
45275;BME280;31019;43.780;25.948;2023-03-14T04:43:49;101266.09;;;-1.39;100.00
45275;BME280;31019;43.780;25.948;2023-03-14T04:46:19;101261.78;;;-1.51;100.00
45275;BME280;31019;43.780;25.948;2023-03-14T04:48:47;101253.97;;;-1.51;100.00
45275;BME280;31019;43.780;25.948;2023-03-14T04:51:14;101255.28;;;-1.46;100.00
45275;BME280;31019;43.780;25.948;2023-03-14T04:53:41;101252.31;;;-1.52;100.00
45275;BME280;31019;43.780;25.948;2023-03-14T04:56:14;101260.88;;;-1.28;100.00
45275;BME280;31019;43.780;25.948;2023-03-14T04:58:42;101252.16;;;-0.82;100.00
45275;BME280;31019;43.780;25.948;2023-03-14T05:01:10;101259.34;;;-0.29;100.00
45275;BME280;31019;43.780;25.948;2023-03-14T05:03:40;101260.69;;;-0.03;100.00
45275;BME280;31019;43.780;25.948;2023-03-14T05:06:08;101262.09;;;-0.53;100.00
45275;BME280;31019;43.780;25.948;2023-03-14T05:08:35;101268.22;;;-0.20;100.00
45275;BME280;31019;43.780;25.948;2023-03-14T05:11:05;101274.94;;;-0.07;100.00
45275;BME280;31019;43.780;25.948;2023-03-14T05:13:38;101278.28;;;-0.16;100.00
45275;BME280;31019;43.780;25.948;2023-03-14T05:16:08;101279.78;;;0.30;100.00
45275;BME280;31019;43.780;25.948;2023-03-14T05:18:36;101288.91;;;0.36;100.00
45275;BME280;31019;43.780;25.948;2023-03-14T05:21:04;101284.09;;;0.31;100.00
45275;BME280;31019;43.780;25.948;2023-03-14T05:23:31;101283.53;;;0.16;100.00
45275;BME280;31019;43.780;25.948;2023-03-14T05:25:58;101272.97;;;0.18;100.00
45275;BME280;31019;43.780;25.948;2023-03-14T05:28:25;101275.66;;;-0.05;100.00
45275;BME280;31019;43.780;25.948;2023-03-14T05:30:53;101274.41;;;0.43;100.00
45275;BME280;31019;43.780;25.948;2023-03-14T05:33:20;101279.66;;;0.43;100.00
45275;BME280;31019;43.780;25.948;2023-03-14T05:35:46;101274.94;;;0.58;100.00
45275;BME280;31019;43.780;25.948;2023-03-14T05:38:13;101271.22;;;0.81;100.00
45275;BME280;31019;43.780;25.948;2023-03-14T05:40:40;101267.44;;;0.95;100.00
45275;BME280;31019;43.780;25.948;2023-03-14T05:43:06;101268.78;;;1.20;100.00
45275;BME280;31019;43.780;25.948;2023-03-14T05:45:33;101258.69;;;1.46;100.00
45275;BME280;31019;43.780;25.948;2023-03-14T05:48:02;101263.03;;;1.67;100.00
45275;BME280;31019;43.780;25.948;2023-03-14T05:50:29;101261.63;;;1.63;100.00
45275;BME280;31019;43.780;25.948;2023-03-14T05:52:56;101264.69;;;1.77;100.00
45275;BME280;31019;43.780;25.948;2023-03-14T05:55:23;101261.28;;;1.96;100.00
45275;BME280;31019;43.780;25.948;2023-03-14T05:57:50;101259.56;;;1.66;100.00
45275;BME280;31019;43.780;25.948;2023-03-14T06:00:17;101256.44;;;2.11;100.00
45275;BME280;31019;43.780;25.948;2023-03-14T06:02:44;101263.06;;;2.44;100.00
45275;BME280;31019;43.780;25.948;2023-03-14T06:05:12;101257.41;;;2.59;100.00
45275;BME280;31019;43.780;25.948;2023-03-14T06:07:39;101253.53;;;2.72;100.00
45275;BME280;31019;43.780;25.948;2023-03-14T06:10:06;101238.41;;;2.84;100.00
45275;BME280;31019;43.780;25.948;2023-03-14T06:12:33;101243.00;;;2.82;100.00
45275;BME280;31019;43.780;25.948;2023-03-14T06:15:01;101240.63;;;2.89;100.00
45275;BME280;31019;43.780;25.948;2023-03-14T06:17:28;101250.84;;;2.92;100.00
45275;BME280;31019;43.780;25.948;2023-03-14T06:19:55;101247.44;;;2.82;100.00
45275;BME280;31019;43.780;25.948;2023-03-14T06:22:23;101238.69;;;3.28;100.00
45275;BME280;31019;43.780;25.948;2023-03-14T06:24:49;101237.50;;;3.68;100.00
45275;BME280;31019;43.780;25.948;2023-03-14T06:27:16;101239.53;;;3.74;100.00
45275;BME280;31019;43.780;25.948;2023-03-14T06:29:43;101237.59;;;4.12;100.00
45275;BME280;31019;43.780;25.948;2023-03-14T06:32:10;101240.72;;;4.51;100.00
45275;BME280;31019;43.780;25.948;2023-03-14T06:34:36;101241.13;;;4.65;100.00
45275;BME280;31019;43.780;25.948;2023-03-14T06:37:03;101239.75;;;4.78;100.00
45275;BME280;31019;43.780;25.948;2023-03-14T06:39:32;101238.38;;;4.74;100.00
45275;BME280;31019;43.780;25.948;2023-03-14T06:41:59;101234.28;;;5.06;100.00
45275;BME280;31019;43.780;25.948;2023-03-14T06:44:25;101243.44;;;5.28;100.00
45275;BME280;31019;43.780;25.948;2023-03-14T06:46:53;101239.47;;;5.24;100.00
45275;BME280;31019;43.780;25.948;2023-03-14T06:49:20;101233.94;;;5.43;100.00
45275;BME280;31019;43.780;25.948;2023-03-14T06:51:46;101239.25;;;5.60;100.00
45275;BME280;31019;43.780;25.948;2023-03-14T06:54:13;101236.19;;;5.81;100.00
45275;BME280;31019;43.780;25.948;2023-03-14T06:56:41;101244.53;;;6.27;100.00
45275;BME280;31019;43.780;25.948;2023-03-14T06:59:08;101232.47;;;6.32;100.00
45275;BME280;31019;43.780;25.948;2023-03-14T07:01:35;101234.59;;;6.70;100.00
45275;BME280;31019;43.780;25.948;2023-03-14T07:04:02;101233.41;;;6.80;100.00
45275;BME280;31019;43.780;25.948;2023-03-14T07:06:28;101222.59;;;6.51;100.00
45275;BME280;31019;43.780;25.948;2023-03-14T07:08:56;101218.00;;;7.00;99.04
45275;BME280;31019;43.780;25.948;2023-03-14T07:11:23;101209.66;;;7.28;97.50
45275;BME280;31019;43.780;25.948;2023-03-14T07:13:51;101207.19;;;7.57;89.71
45275;BME280;31019;43.780;25.948;2023-03-14T07:16:18;101205.03;;;7.84;91.01
45275;BME280;31019;43.780;25.948;2023-03-14T07:18:45;101200.28;;;8.02;84.33
45275;BME280;31019;43.780;25.948;2023-03-14T07:21:12;101195.00;;;8.02;82.94
45275;BME280;31019;43.780;25.948;2023-03-14T07:23:39;101196.56;;;8.49;79.20
45275;BME280;31019;43.780;25.948;2023-03-14T07:26:06;101185.19;;;8.79;80.38
45275;BME280;31019;43.780;25.948;2023-03-14T07:28:33;101184.84;;;8.97;75.54
45275;BME280;31019;43.780;25.948;2023-03-14T07:31:01;101183.84;;;9.34;76.63
45275;BME280;31019;43.780;25.948;2023-03-14T07:33:28;101185.63;;;9.63;81.22
45275;BME280;31019;43.780;25.948;2023-03-14T07:35:54;101191.47;;;9.58;73.03
45275;BME280;31019;43.780;25.948;2023-03-14T07:38:21;101187.47;;;9.84;75.56
45275;BME280;31019;43.780;25.948;2023-03-14T07:40:48;101188.56;;;10.39;71.11
45275;BME280;31019;43.780;25.948;2023-03-14T07:43:15;101188.38;;;10.41;68.75
45275;BME280;31019;43.780;25.948;2023-03-14T07:45:45;101181.06;;;10.77;63.31
45275;BME280;31019;43.780;25.948;2023-03-14T07:48:13;101178.84;;;11.29;67.43
45275;BME280;31019;43.780;25.948;2023-03-14T07:50:40;101182.75;;;10.92;62.94
45275;BME280;31019;43.780;25.948;2023-03-14T07:53:07;101179.31;;;11.53;62.17
45275;BME280;31019;43.780;25.948;2023-03-14T07:55:34;101178.56;;;11.79;58.42
45275;BME280;31019;43.780;25.948;2023-03-14T07:58:00;101177.19;;;12.03;59.15
45275;BME280;31019;43.780;25.948;2023-03-14T08:00:27;101174.09;;;12.06;63.13
45275;BME280;31019;43.780;25.948;2023-03-14T08:02:54;101174.09;;;12.46;65.07
45275;BME280;31019;43.780;25.948;2023-03-14T08:05:22;101175.28;;;13.35;66.38
45275;BME280;31019;43.780;25.948;2023-03-14T08:07:49;101162.78;;;13.35;59.72
45275;BME280;31019;43.780;25.948;2023-03-14T08:10:16;101160.72;;;13.69;58.25
45275;BME280;31019;43.780;25.948;2023-03-14T08:12:47;101167.16;;;14.36;58.71
45275;BME280;31019;43.780;25.948;2023-03-14T08:15:14;101160.81;;;13.56;54.15
45275;BME280;31019;43.780;25.948;2023-03-14T08:17:41;101150.91;;;13.63;56.07
45275;BME280;31019;43.780;25.948;2023-03-14T08:20:09;101159.25;;;14.48;56.30
45275;BME280;31019;43.780;25.948;2023-03-14T08:22:38;101159.38;;;14.35;56.83
45275;BME280;31019;43.780;25.948;2023-03-14T08:25:05;101152.22;;;14.04;52.55
45275;BME280;31019;43.780;25.948;2023-03-14T08:27:32;101149.78;;;14.27;54.99
45275;BME280;31019;43.780;25.948;2023-03-14T08:29:59;101152.28;;;14.47;48.55
45275;BME280;31019;43.780;25.948;2023-03-14T08:32:26;101146.47;;;14.50;50.17
45275;BME280;31019;43.780;25.948;2023-03-14T08:34:52;101145.31;;;15.01;57.88
45275;BME280;31019;43.780;25.948;2023-03-14T08:37:19;101147.66;;;15.09;50.38
45275;BME280;31019;43.780;25.948;2023-03-14T08:39:47;101150.88;;;14.19;49.85
45275;BME280;31019;43.780;25.948;2023-03-14T08:42:14;101146.34;;;15.61;47.10
45275;BME280;31019;43.780;25.948;2023-03-14T08:44:41;101133.78;;;16.03;44.39
45275;BME280;31019;43.780;25.948;2023-03-14T08:47:08;101130.28;;;15.91;45.38
45275;BME280;31019;43.780;25.948;2023-03-14T08:49:34;101131.34;;;14.44;45.05
45275;BME280;31019;43.780;25.948;2023-03-14T08:52:02;101121.53;;;15.42;47.61
45275;BME280;31019;43.780;25.948;2023-03-14T08:54:29;101106.97;;;15.91;46.85
45275;BME280;31019;43.780;25.948;2023-03-14T08:56:57;101111.75;;;16.48;46.39
45275;BME280;31019;43.780;25.948;2023-03-14T08:59:24;101097.25;;;17.13;43.62
45275;BME280;31019;43.780;25.948;2023-03-14T09:01:51;101088.63;;;16.70;46.04
45275;BME280;31019;43.780;25.948;2023-03-14T09:04:18;101090.88;;;17.48;41.37
45275;BME280;31019;43.780;25.948;2023-03-14T09:06:44;101094.00;;;17.73;42.83
45275;BME280;31019;43.780;25.948;2023-03-14T09:09:11;101077.41;;;17.14;40.39
45275;BME280;31019;43.780;25.948;2023-03-14T09:11:39;101079.97;;;17.37;40.25
45275;BME280;31019;43.780;25.948;2023-03-14T09:14:07;101068.50;;;16.44;41.33
45275;BME280;31019;43.780;25.948;2023-03-14T09:16:34;101078.66;;;16.31;42.16
45275;BME280;31019;43.780;25.948;2023-03-14T09:19:00;101069.72;;;17.51;42.27
45275;BME280;31019;43.780;25.948;2023-03-14T09:21:27;101066.56;;;17.09;43.04
45275;BME280;31019;43.780;25.948;2023-03-14T09:23:54;101059.69;;;17.30;41.30
45275;BME280;31019;43.780;25.948;2023-03-14T09:26:21;101055.75;;;17.49;37.35
45275;BME280;31019;43.780;25.948;2023-03-14T09:28:47;101046.94;;;16.51;40.50
45275;BME280;31019;43.780;25.948;2023-03-14T09:31:16;101042.69;;;17.07;38.03
45275;BME280;31019;43.780;25.948;2023-03-14T09:33:42;101043.91;;;17.16;36.29
45275;BME280;31019;43.780;25.948;2023-03-14T09:36:10;101032.66;;;18.43;37.17
45275;BME280;31019;43.780;25.948;2023-03-14T09:38:37;101034.81;;;18.24;38.84
45275;BME280;31019;43.780;25.948;2023-03-14T09:41:13;101027.06;;;17.55;36.17
45275;BME280;31019;43.780;25.948;2023-03-14T09:43:42;101027.81;;;17.33;37.41
45275;BME280;31019;43.780;25.948;2023-03-14T09:46:10;101019.34;;;18.31;36.95
45275;BME280;31019;43.780;25.948;2023-03-14T09:48:39;101015.84;;;17.24;38.38
45275;BME280;31019;43.780;25.948;2023-03-14T09:51:13;101007.31;;;18.39;37.38
45275;BME280;31019;43.780;25.948;2023-03-14T09:53:42;100989.84;;;18.63;35.18
45275;BME280;31019;43.780;25.948;2023-03-14T09:56:13;100996.94;;;20.08;36.51
45275;BME280;31019;43.780;25.948;2023-03-14T09:58:45;100994.59;;;20.22;31.30
45275;BME280;31019;43.780;25.948;2023-03-14T10:01:18;100995.56;;;18.94;30.06
45275;BME280;31019;43.780;25.948;2023-03-14T10:03:48;100978.78;;;19.14;34.31
45275;BME280;31019;43.780;25.948;2023-03-14T10:06:17;100980.44;;;18.39;38.13
45275;BME280;31019;43.780;25.948;2023-03-14T10:08:44;100979.63;;;18.38;34.09
45275;BME280;31019;43.780;25.948;2023-03-14T10:11:14;100966.06;;;19.74;34.11
45275;BME280;31019;43.780;25.948;2023-03-14T10:13:50;100955.00;;;19.70;31.17
45275;BME280;31019;43.780;25.948;2023-03-14T10:16:16;100952.13;;;19.92;34.29
45275;BME280;31019;43.780;25.948;2023-03-14T10:18:45;100949.56;;;17.42;39.81
45275;BME280;31019;43.780;25.948;2023-03-14T10:21:24;100945.19;;;18.62;33.87
45275;BME280;31019;43.780;25.948;2023-03-14T10:23:52;100941.88;;;19.09;34.14
45275;BME280;31019;43.780;25.948;2023-03-14T10:26:24;100939.94;;;19.37;34.97
45275;BME280;31019;43.780;25.948;2023-03-14T10:28:54;100935.13;;;20.59;33.98
45275;BME280;31019;43.780;25.948;2023-03-14T10:31:27;100929.03;;;20.06;29.85
45275;BME280;31019;43.780;25.948;2023-03-14T10:33:59;100919.22;;;20.78;32.93
45275;BME280;31019;43.780;25.948;2023-03-14T10:36:29;100913.00;;;19.84;33.41
45275;BME280;31019;43.780;25.948;2023-03-14T10:38:58;100914.56;;;19.33;30.92
45275;BME280;31019;43.780;25.948;2023-03-14T10:41:32;100901.41;;;20.98;31.61
45275;BME280;31019;43.780;25.948;2023-03-14T10:44:00;100896.22;;;20.50;34.49
45275;BME280;31019;43.780;25.948;2023-03-14T10:46:30;100887.25;;;20.14;31.82
45275;BME280;31019;43.780;25.948;2023-03-14T10:48:58;100878.28;;;22.37;30.91
45275;BME280;31019;43.780;25.948;2023-03-14T10:51:31;100872.47;;;21.24;27.28
45275;BME280;31019;43.780;25.948;2023-03-14T10:54:00;100875.28;;;21.89;29.33
45275;BME280;31019;43.780;25.948;2023-03-14T10:56:34;100867.88;;;21.30;30.56
45275;BME280;31019;43.780;25.948;2023-03-14T10:59:02;100858.22;;;20.77;28.46
45275;BME280;31019;43.780;25.948;2023-03-14T11:01:37;100850.66;;;20.69;29.06
45275;BME280;31019;43.780;25.948;2023-03-14T11:04:14;100844.75;;;21.83;28.19
45275;BME280;31019;43.780;25.948;2023-03-14T11:06:56;100838.72;;;22.46;28.00
45275;BME280;31019;43.780;25.948;2023-03-14T11:09:29;100825.94;;;21.58;27.46
45275;BME280;31019;43.780;25.948;2023-03-14T11:12:04;100821.41;;;21.98;25.71
45275;BME280;31019;43.780;25.948;2023-03-14T11:14:41;100814.59;;;22.05;26.94
45275;BME280;31019;43.780;25.948;2023-03-14T11:17:15;100812.09;;;22.58;26.74
45275;BME280;31019;43.780;25.948;2023-03-14T11:19:53;100791.59;;;22.47;25.08
45275;BME280;31019;43.780;25.948;2023-03-14T11:22:28;100786.69;;;22.20;28.11
45275;BME280;31019;43.780;25.948;2023-03-14T11:25:06;100776.09;;;23.35;26.63
45275;BME280;31019;43.780;25.948;2023-03-14T11:27:41;100775.09;;;22.09;24.78
45275;BME280;31019;43.780;25.948;2023-03-14T11:30:17;100770.59;;;22.92;24.06
45275;BME280;31019;43.780;25.948;2023-03-14T11:32:47;100757.03;;;23.45;23.21
45275;BME280;31019;43.780;25.948;2023-03-14T11:35:25;100749.28;;;21.88;25.42
45275;BME280;31019;43.780;25.948;2023-03-14T11:38:04;100742.59;;;21.75;23.82
45275;BME280;31019;43.780;25.948;2023-03-14T11:40:40;100734.91;;;23.57;22.66
45275;BME280;31019;43.780;25.948;2023-03-14T11:43:14;100726.78;;;23.57;22.62
45275;BME280;31019;43.780;25.948;2023-03-14T11:45:51;100724.41;;;22.30;24.44
45275;BME280;31019;43.780;25.948;2023-03-14T11:48:29;100710.03;;;20.81;25.83
45275;BME280;31019;43.780;25.948;2023-03-14T11:51:02;100691.16;;;22.78;28.05
45275;BME280;31019;43.780;25.948;2023-03-14T11:53:40;100693.78;;;22.01;25.25
45275;BME280;31019;43.780;25.948;2023-03-14T11:56:13;100678.31;;;22.64;24.88
45275;BME280;31019;43.780;25.948;2023-03-14T11:58:54;100678.78;;;23.76;23.64
45275;BME280;31019;43.780;25.948;2023-03-14T12:01:27;100668.69;;;20.96;23.02
45275;BME280;31019;43.780;25.948;2023-03-14T12:04:00;100662.88;;;21.28;23.09
45275;BME280;31019;43.780;25.948;2023-03-14T12:06:34;100657.47;;;21.28;24.53
45275;BME280;31019;43.780;25.948;2023-03-14T12:09:06;100646.88;;;21.42;22.65
45275;BME280;31019;43.780;25.948;2023-03-14T12:11:38;100647.13;;;21.85;24.39
45275;BME280;31019;43.780;25.948;2023-03-14T12:14:17;100637.84;;;21.57;23.14
45275;BME280;31019;43.780;25.948;2023-03-14T12:16:45;100633.41;;;21.37;25.27
45275;BME280;31019;43.780;25.948;2023-03-14T12:19:29;100637.53;;;21.63;27.57
45275;BME280;31019;43.780;25.948;2023-03-14T12:22:13;100625.59;;;23.05;21.43
45275;BME280;31019;43.780;25.948;2023-03-14T12:24:49;100626.63;;;22.08;24.68
45275;BME280;31019;43.780;25.948;2023-03-14T12:30:27;100623.78;;;21.60;23.49
45275;BME280;31019;43.780;25.948;2023-03-14T12:39:08;100604.78;;;24.36;21.39
45275;BME280;31019;43.780;25.948;2023-03-14T12:41:43;100610.28;;;23.71;22.86
45275;BME280;31019;43.780;25.948;2023-03-14T12:44:41;100602.66;;;20.73;29.14
45275;BME280;31019;43.780;25.948;2023-03-14T12:47:50;100599.09;;;21.71;24.05
45275;BME280;31019;43.780;25.948;2023-03-14T12:50:36;100591.78;;;22.06;22.96
45275;BME280;31019;43.780;25.948;2023-03-14T12:56:54;100572.06;;;22.30;22.27
45275;BME280;31019;43.780;25.948;2023-03-14T12:59:33;100568.78;;;22.57;22.57
45275;BME280;31019;43.780;25.948;2023-03-14T13:02:10;100564.78;;;21.72;23.77
45275;BME280;31019;43.780;25.948;2023-03-14T13:04:44;100553.66;;;22.03;24.12